Time;durP1;ratioP1;P1;durP2;ratioP2;P2;SDS_P1;SDS_P2;PMS_P1;PMS_P2;Temp;Humidity;BMP_temperature;BMP_pressure;BME280_temperature;BME280_humidity;BME280_pressure;Samples;Min_cycle;Max_cycle;Signal;HPM_P1;HPM_P2
2023/12/08 05:01:28;;;;;;;6.97;5.50;;;0.50;99.90;;;;;;5423719;23;20463;-74
2023/12/08 05:03:54;;;;;;;9.23;7.32;;;0.50;99.90;;;;;;4931410;29;20324;-75
2023/12/08 05:06:23;;;;;;;9.43;7.25;;;0.50;99.90;;;;;;4932900;29;20693;-74
2023/12/08 05:08:49;;;;;;;6.70;6.10;;;0.50;99.90;;;;;;4931889;29;20213;-75
2023/12/08 05:11:16;;;;;;;12.63;7.75;;;0.50;99.90;;;;;;4925344;29;20234;-74
2023/12/08 05:13:43;;;;;;;10.63;8.77;;;0.50;99.90;;;;;;4917219;29;20219;-75
2023/12/08 05:16:11;;;;;;;7.70;6.85;;;0.50;99.90;;;;;;4917260;29;20214;-74
2023/12/08 05:18:40;;;;;;;9.10;7.78;;;0.50;99.90;;;;;;4912949;29;20267;-74
2023/12/08 05:21:07;;;;;;;13.23;9.20;;;0.60;99.90;;;;;;4912849;29;20673;-75
2023/12/08 05:23:34;;;;;;;11.63;7.00;;;0.60;99.90;;;;;;4916902;29;20211;-75
2023/12/08 05:26:01;;;;;;;7.18;6.47;;;0.60;99.90;;;;;;4914600;29;20598;-75
2023/12/08 05:28:27;;;;;;;9.15;7.93;;;0.60;99.90;;;;;;4914042;29;20211;-75
2023/12/08 05:30:55;;;;;;;7.22;6.25;;;0.70;99.90;;;;;;4916628;29;20229;-74
2023/12/08 05:33:21;;;;;;;9.02;7.63;;;0.70;99.90;;;;;;4919866;29;20205;-75
2023/12/08 05:35:49;;;;;;;11.82;6.22;;;0.70;99.90;;;;;;4920480;29;20573;-75
2023/12/08 05:38:16;;;;;;;10.82;6.07;;;0.70;99.90;;;;;;4918985;29;20215;-75
2023/12/08 05:40:43;;;;;;;12.60;8.05;;;0.70;99.90;;;;;;4920075;29;20229;-75
2023/12/08 05:43:10;;;;;;;12.25;7.47;;;0.70;99.90;;;;;;4918186;29;20234;-74
2023/12/08 05:45:37;;;;;;;11.18;8.38;;;0.70;99.90;;;;;;4915144;29;20211;-75
2023/12/08 05:48:04;;;;;;;12.23;7.65;;;0.70;99.90;;;;;;4917964;29;20700;-75
2023/12/08 05:50:30;;;;;;;7.72;4.93;;;0.80;99.90;;;;;;4919551;29;20245;-75
2023/12/08 05:52:58;;;;;;;9.25;6.93;;;0.70;99.90;;;;;;4919951;29;20211;-75
2023/12/08 05:55:25;;;;;;;7.05;5.90;;;0.80;99.90;;;;;;4918308;29;20313;-75
2023/12/08 05:57:52;;;;;;;9.30;6.40;;;0.80;99.90;;;;;;4917247;29;20665;-75
2023/12/08 06:00:20;;;;;;;10.95;7.65;;;0.90;99.90;;;;;;4918925;29;20222;-75
2023/12/08 06:02:47;;;;;;;10.50;8.10;;;0.80;99.90;;;;;;4919537;29;20265;-75
2023/12/08 06:05:15;;;;;;;11.63;6.50;;;0.90;99.90;;;;;;4919319;29;20270;-75
2023/12/08 06:07:42;;;;;;;9.15;7.47;;;0.90;99.90;;;;;;4919634;29;20219;-75
2023/12/08 06:10:11;;;;;;;15.95;10.20;;;0.90;99.90;;;;;;4919031;29;20298;-75
2023/12/08 06:12:39;;;;;;;9.57;5.93;;;0.90;99.90;;;;;;4918003;29;20262;-74
2023/12/08 06:15:09;;;;;;;9.60;7.07;;;0.90;99.90;;;;;;4913708;29;20266;-74
2023/12/08 06:17:36;;;;;;;13.23;7.25;;;0.90;99.90;;;;;;4916801;29;20677;-75
2023/12/08 06:20:04;;;;;;;6.00;5.20;;;1.00;99.90;;;;;;4914140;29;22027;-76
2023/12/08 06:22:31;;;;;;;10.02;5.70;;;1.00;99.90;;;;;;4915652;29;20238;-74
2023/12/08 06:24:58;;;;;;;9.77;6.25;;;1.10;99.90;;;;;;4918224;29;20583;-74
2023/12/08 06:27:26;;;;;;;13.93;6.43;;;1.10;99.90;;;;;;4918183;29;20301;-74
2023/12/08 06:29:52;;;;;;;10.75;6.00;;;1.10;99.90;;;;;;4917924;29;20203;-74
2023/12/08 06:32:19;;;;;;;11.85;6.70;;;1.20;99.90;;;;;;4917582;29;20233;-74
2023/12/08 06:34:46;;;;;;;11.80;9.10;;;1.20;99.90;;;;;;4918863;29;20210;-74
2023/12/08 06:37:13;;;;;;;17.58;10.10;;;1.20;99.90;;;;;;4919613;29;20211;-74
2023/12/08 06:39:40;;;;;;;12.85;6.88;;;1.20;99.90;;;;;;4920594;29;20224;-74
2023/12/08 06:42:07;;;;;;;11.10;6.22;;;1.20;99.90;;;;;;4919346;29;20230;-73
2023/12/08 06:44:35;;;;;;;12.43;9.23;;;1.30;99.90;;;;;;4921002;29;20217;-74
2023/12/08 06:47:02;;;;;;;11.38;6.32;;;1.30;99.90;;;;;;4918106;29;20226;-74
2023/12/08 06:49:29;;;;;;;7.53;4.22;;;1.30;99.90;;;;;;4919749;29;20237;-74
2023/12/08 06:51:55;;;;;;;5.72;4.25;;;1.40;99.90;;;;;;4919466;29;20222;-74
2023/12/08 06:54:22;;;;;;;7.32;6.18;;;1.40;99.90;;;;;;4917240;29;20657;-73
2023/12/08 06:56:49;;;;;;;8.30;3.75;;;1.40;99.90;;;;;;4918572;29;20222;-74
2023/12/08 06:59:16;;;;;;;6.45;5.75;;;1.40;99.90;;;;;;4916891;29;20324;-73
2023/12/08 07:01:44;;;;;;;9.45;6.43;;;1.40;99.90;;;;;;4910947;29;20268;-74
2023/12/08 07:04:10;;;;;;;5.57;4.80;;;1.40;99.90;;;;;;4914944;29;20215;-74
2023/12/08 07:06:37;;;;;;;2.72;2.42;;;1.40;99.90;;;;;;4915164;29;20210;-74
2023/12/08 07:09:05;;;;;;;7.00;6.30;;;1.40;99.90;;;;;;4916765;29;20232;-74
2023/12/08 07:11:31;;;;;;;3.80;3.47;;;1.50;99.90;;;;;;4916303;29;20235;-74
2023/12/08 07:13:58;;;;;;;13.23;7.82;;;1.40;99.90;;;;;;4918551;29;20289;-74
2023/12/08 07:16:25;;;;;;;23.65;10.70;;;1.50;99.90;;;;;;4913215;29;20214;-74
2023/12/08 07:18:53;;;;;;;9.63;8.80;;;1.50;99.90;;;;;;4915678;29;20211;-73
2023/12/08 07:21:19;;;;;;;5.03;4.57;;;1.50;99.90;;;;;;4912548;29;20598;-74
2023/12/08 07:23:46;;;;;;;7.85;5.88;;;1.50;99.90;;;;;;4915477;29;20234;-75
2023/12/08 07:26:13;;;;;;;12.18;7.32;;;1.50;99.90;;;;;;4916721;29;20233;-74
2023/12/08 07:28:40;;;;;;;8.30;7.40;;;1.50;99.90;;;;;;4914671;29;20246;-74
2023/12/08 07:31:06;;;;;;;11.68;7.57;;;1.50;99.90;;;;;;4913269;29;20234;-73
2023/12/08 07:33:33;;;;;;;8.10;6.43;;;1.50;99.90;;;;;;4912359;29;20550;-73
2023/12/08 07:36:01;;;;;;;10.60;7.30;;;1.50;99.90;;;;;;4914946;29;20285;-73
2023/12/08 07:38:29;;;;;;;11.02;5.60;;;1.60;99.90;;;;;;4914750;29;20586;-73
2023/12/08 07:40:55;;;;;;;13.77;8.20;;;1.60;99.90;;;;;;4915445;29;20281;-72
2023/12/08 07:43:22;;;;;;;3.65;3.35;;;1.60;99.90;;;;;;4912560;29;20231;-73
2023/12/08 07:45:51;;;;;;;13.52;9.60;;;1.60;99.90;;;;;;4910577;29;20213;-73
2023/12/08 07:48:17;;;;;;;7.00;5.22;;;1.60;99.90;;;;;;4909711;29;20759;-73
2023/12/08 07:50:44;;;;;;;3.38;3.17;;;1.60;99.90;;;;;;4909271;29;20226;-71
2023/12/08 07:53:13;;;;;;;5.25;2.85;;;1.60;99.90;;;;;;4913184;29;20496;-73
2023/12/08 07:55:40;;;;;;;16.52;9.25;;;1.60;99.90;;;;;;4912139;29;20210;-72
2023/12/08 07:58:07;;;;;;;14.48;11.20;;;1.60;99.90;;;;;;4914487;29;20236;-72
2023/12/08 08:00:34;;;;;;;12.82;9.40;;;1.70;99.90;;;;;;4913679;29;20729;-72
2023/12/08 08:03:01;;;;;;;9.73;5.43;;;1.60;99.90;;;;;;4912458;29;20550;-71
2023/12/08 08:05:29;;;;;;;13.27;10.32;;;1.60;99.90;;;;;;4913505;29;20361;-73
2023/12/08 08:07:55;;;;;;;14.80;8.63;;;1.60;99.90;;;;;;4912723;29;20202;-72
2023/12/08 08:10:23;;;;;;;9.30;6.53;;;1.60;99.90;;;;;;4911609;29;20211;-72
2023/12/08 08:12:50;;;;;;;12.13;7.88;;;1.70;99.90;;;;;;4913838;29;20223;-72
2023/12/08 08:15:17;;;;;;;8.45;7.65;;;1.70;99.90;;;;;;4913921;29;20301;-73
2023/12/08 08:17:44;;;;;;;8.13;7.35;;;1.70;99.90;;;;;;4919350;29;20214;-73
2023/12/08 08:20:11;;;;;;;12.10;9.23;;;1.70;99.90;;;;;;4917831;29;20203;-73
2023/12/08 08:22:40;;;;;;;11.02;8.70;;;1.70;99.90;;;;;;4915877;29;20234;-69
2023/12/08 08:25:16;;;;;;;14.93;9.02;;;1.70;99.90;;;;;;4913753;29;20214;-73
2023/12/08 08:27:49;;;;;;;9.98;5.43;;;1.70;99.90;;;;;;4912164;29;20221;-73
2023/12/08 08:30:18;;;;;;;6.68;4.07;;;1.70;99.90;;;;;;4908415;29;20639;-71
2023/12/08 08:32:45;;;;;;;12.50;8.18;;;1.70;99.90;;;;;;4911160;29;20214;-71
2023/12/08 08:35:16;;;;;;;12.90;9.05;;;1.70;99.90;;;;;;4912549;29;20217;-71
2023/12/08 08:37:49;;;;;;;16.90;8.23;;;1.80;99.90;;;;;;4910816;29;20223;-73
2023/12/08 08:40:18;;;;;;;15.25;10.25;;;1.80;99.90;;;;;;4911406;29;20297;-72
2023/12/08 08:42:53;;;;;;;12.85;6.05;;;1.80;99.90;;;;;;4910665;29;20235;-71
2023/12/08 08:45:27;;;;;;;6.25;4.32;;;1.80;99.90;;;;;;4913022;29;20223;-72
2023/12/08 08:47:59;;;;;;;17.83;9.40;;;1.80;99.90;;;;;;4910255;29;20209;-71
2023/12/08 08:50:29;;;;;;;17.08;11.82;;;1.80;99.90;;;;;;4911969;29;20672;-71
2023/12/08 08:52:57;;;;;;;14.65;8.27;;;1.90;99.90;;;;;;4906112;29;20207;-72
2023/12/08 08:55:29;;;;;;;13.95;8.20;;;1.90;99.90;;;;;;4913749;29;20210;-72
2023/12/08 08:58:09;;;;;;;15.20;5.45;;;1.90;99.90;;;;;;4909274;29;20214;-72
2023/12/08 09:00:43;;;;;;;16.35;8.82;;;1.90;99.90;;;;;;4903626;29;20239;-71
2023/12/08 09:03:13;;;;;;;9.18;4.72;;;1.90;99.90;;;;;;4908715;29;20612;-70
2023/12/08 09:05:46;;;;;;;10.13;6.25;;;1.90;99.90;;;;;;4911091;29;20207;-73
2023/12/08 09:08:18;;;;;;;14.60;7.97;;;1.90;99.90;;;;;;4915799;29;20262;-74
2023/12/08 09:10:45;;;;;;;8.48;5.38;;;1.90;99.90;;;;;;4915532;29;20245;-74
2023/12/08 09:13:20;;;;;;;11.68;8.35;;;1.90;99.90;;;;;;4909885;29;20211;-74
2023/12/08 09:15:51;;;;;;;6.72;4.00;;;1.90;99.90;;;;;;4911405;29;20194;-74
2023/12/08 09:18:19;;;;;;;13.25;7.07;;;1.90;99.90;;;;;;4912759;29;20221;-74
2023/12/08 09:20:52;;;;;;;21.20;11.25;;;2.00;99.90;;;;;;4911057;29;20238;-74
2023/12/08 09:23:22;;;;;;;9.02;6.68;;;2.00;99.90;;;;;;4911474;29;20305;-74
2023/12/08 09:25:49;;;;;;;13.98;9.25;;;2.00;99.90;;;;;;4912828;29;20210;-73
2023/12/08 09:28:26;;;;;;;11.50;6.40;;;2.00;99.90;;;;;;4913451;29;20207;-73
2023/12/08 09:30:53;;;;;;;16.73;7.65;;;2.00;99.90;;;;;;4912960;29;20236;-74
2023/12/08 09:33:23;;;;;;;13.15;5.97;;;2.00;99.90;;;;;;4911067;29;20207;-72
2023/12/08 09:35:50;;;;;;;14.60;6.68;;;2.00;99.90;;;;;;4912829;29;20210;-72
2023/12/08 09:38:26;;;;;;;7.68;4.88;;;2.10;99.90;;;;;;4911961;29;20531;-73
2023/12/08 09:41:04;;;;;;;11.98;7.13;;;2.00;99.90;;;;;;4912730;29;20715;-72
2023/12/08 09:43:43;;;;;;;11.45;6.95;;;2.00;99.90;;;;;;4911270;29;20258;-73
2023/12/08 09:46:21;;;;;;;11.55;7.88;;;2.10;99.90;;;;;;4912876;29;20302;-73
2023/12/08 09:48:49;;;;;;;6.50;5.50;;;2.10;99.90;;;;;;4912580;29;20685;-72
2023/12/08 09:51:22;;;;;;;15.88;10.00;;;2.10;99.90;;;;;;4907829;29;20231;-73
2023/12/08 09:54:03;;;;;;;6.68;5.97;;;2.10;99.90;;;;;;4908101;29;20211;-73
2023/12/08 09:56:35;;;;;;;14.90;10.48;;;2.10;99.90;;;;;;4913408;29;20218;-72
2023/12/08 09:59:10;;;;;;;10.95;8.80;;;2.10;99.90;;;;;;4912348;29;20210;-72
2023/12/08 10:01:44;;;;;;;24.83;8.60;;;2.10;99.90;;;;;;4910686;29;20244;-72
2023/12/08 10:04:16;;;;;;;19.98;10.80;;;2.10;99.90;;;;;;4911474;29;20341;-73
2023/12/08 10:06:46;;;;;;;9.77;7.90;;;2.10;99.90;;;;;;4911779;29;20321;-73
2023/12/08 10:09:30;;;;;;;11.25;6.88;;;2.10;99.90;;;;;;4909458;29;20627;-73
2023/12/08 10:12:03;;;;;;;12.50;8.00;;;2.10;99.90;;;;;;4911820;29;20234;-72
2023/12/08 10:14:32;;;;;;;17.58;6.63;;;2.20;99.90;;;;;;4913165;29;20233;-71
2023/12/08 10:17:06;;;;;;;10.00;6.35;;;2.20;99.90;;;;;;4913531;29;20207;-71
2023/12/08 10:19:36;;;;;;;15.00;9.60;;;2.20;99.90;;;;;;4913439;29;20245;-71
2023/12/08 10:22:03;;;;;;;6.90;6.32;;;2.20;99.90;;;;;;4915042;29;20317;-71
2023/12/08 10:24:31;;;;;;;12.82;7.30;;;2.20;99.90;;;;;;4915307;29;20235;-71
2023/12/08 10:26:59;;;;;;;13.35;9.20;;;2.20;99.90;;;;;;4916430;29;20214;-71
2023/12/08 10:29:32;;;;;;;10.05;7.00;;;2.20;99.90;;;;;;4908579;29;20203;-71
2023/12/08 10:32:01;;;;;;;14.00;9.30;;;2.20;99.90;;;;;;4915694;29;20234;-72
2023/12/08 10:34:29;;;;;;;9.82;8.27;;;2.30;99.90;;;;;;4916712;29;20249;-71
2023/12/08 10:37:00;;;;;;;10.10;6.20;;;2.30;99.90;;;;;;4916891;29;20234;-71
2023/12/08 10:39:36;;;;;;;19.70;9.38;;;2.30;99.90;;;;;;4914965;29;20215;-71
2023/12/08 10:42:05;;;;;;;21.85;11.18;;;2.30;99.90;;;;;;4911000;29;20701;-72
2023/12/08 10:44:35;;;;;;;18.42;11.15;;;2.30;99.90;;;;;;4917006;29;20238;-71
2023/12/08 10:47:07;;;;;;;11.73;8.05;;;2.30;99.90;;;;;;4912808;29;20249;-71
2023/12/08 10:49:42;;;;;;;10.77;8.20;;;2.30;99.90;;;;;;4911573;29;20215;-71
2023/12/08 10:52:12;;;;;;;16.90;7.93;;;2.30;99.90;;;;;;4915540;29;20221;-72
2023/12/08 10:54:41;;;;;;;9.13;4.93;;;2.30;99.90;;;;;;4915551;29;20215;-71
2023/12/08 10:57:13;;;;;;;15.38;9.60;;;2.30;99.90;;;;;;4915189;29;20288;-71
2023/12/08 10:59:47;;;;;;;7.40;5.00;;;2.30;99.90;;;;;;4913403;29;20222;-71
2023/12/08 11:02:25;;;;;;;10.35;7.60;;;2.30;99.90;;;;;;4915015;29;20248;-70
2023/12/08 11:05:00;;;;;;;6.70;4.63;;;2.30;99.90;;;;;;4912752;29;20676;-70
2023/12/08 11:07:32;;;;;;;14.60;9.82;;;2.20;99.90;;;;;;4914982;29;20214;-71
2023/12/08 11:10:02;;;;;;;13.00;8.52;;;2.20;99.90;;;;;;4913524;29;20210;-71
2023/12/08 11:12:31;;;;;;;12.10;7.40;;;2.10;99.90;;;;;;4911487;29;20223;-71
2023/12/08 11:15:04;;;;;;;24.90;11.38;;;2.10;99.90;;;;;;4914734;29;20580;-70
2023/12/08 11:17:38;;;;;;;12.80;9.82;;;2.00;99.90;;;;;;4910519;29;20245;-71
2023/12/08 11:20:07;;;;;;;11.68;7.93;;;2.00;99.90;;;;;;4905570;29;20207;-71
2023/12/08 11:22:34;;;;;;;9.27;7.00;;;1.90;99.90;;;;;;4910025;29;20329;-71
2023/12/08 11:25:06;;;;;;;9.75;7.88;;;1.80;99.90;;;;;;4914203;29;20325;-71
2023/12/08 11:27:40;;;;;;;15.88;8.35;;;1.70;99.90;;;;;;4911037;29;20207;-72
2023/12/08 11:30:16;;;;;;;6.32;3.78;;;1.70;99.90;;;;;;4908547;29;20218;-72
2023/12/08 11:32:50;;;;;;;8.43;5.25;;;1.70;99.90;;;;;;4912183;29;20309;-72
2023/12/08 11:35:18;;;;;;;15.45;8.55;;;1.70;99.90;;;;;;4907809;29;20207;-72
2023/12/08 11:37:46;;;;;;;14.85;9.15;;;1.60;99.90;;;;;;4906502;29;20226;-71
2023/12/08 11:40:13;;;;;;;9.30;7.35;;;1.60;99.90;;;;;;4914308;29;20669;-72
2023/12/08 11:42:42;;;;;;;11.27;8.10;;;1.60;99.90;;;;;;4914473;29;20661;-72
2023/12/08 11:45:12;;;;;;;14.40;9.48;;;1.60;99.90;;;;;;4912641;29;20318;-71
2023/12/08 11:47:39;;;;;;;14.68;8.43;;;1.60;99.90;;;;;;4914414;29;20688;-71
2023/12/08 11:50:10;;;;;;;8.65;5.88;;;1.60;99.90;;;;;;4914240;29;20215;-72
2023/12/08 11:52:38;;;;;;;16.52;10.65;;;1.60;99.90;;;;;;4911919;29;20253;-72
2023/12/08 11:55:15;;;;;;;14.90;8.43;;;1.50;99.90;;;;;;4913045;29;20217;-71
2023/12/08 11:57:51;;;;;;;15.15;8.10;;;1.60;99.90;;;;;;4908997;29;20689;-72
2023/12/08 12:00:21;;;;;;;9.32;6.07;;;1.60;99.90;;;;;;4914359;29;20202;-71
2023/12/08 12:02:49;;;;;;;12.10;9.10;;;1.60;99.90;;;;;;4911136;29;20876;-72
2023/12/08 12:05:16;;;;;;;8.10;6.85;;;1.60;99.90;;;;;;4907554;29;20537;-71
2023/12/08 12:07:45;;;;;;;12.32;8.43;;;1.60;99.90;;;;;;4911334;29;20209;-71
2023/12/08 12:10:13;;;;;;;17.05;11.05;;;1.60;99.90;;;;;;4909360;29;20344;-71
2023/12/08 12:12:42;;;;;;;12.13;7.47;;;1.60;99.90;;;;;;4907367;29;20218;-71
2023/12/08 12:15:11;;;;;;;22.27;7.15;;;1.60;99.90;;;;;;4909161;29;20211;-72
2023/12/08 12:17:39;;;;;;;12.38;7.90;;;1.60;99.90;;;;;;4912621;29;20210;-71
2023/12/08 12:20:08;;;;;;;14.10;7.15;;;1.60;99.90;;;;;;4911568;29;20705;-71
2023/12/08 12:22:35;;;;;;;7.70;6.82;;;1.60;99.90;;;;;;4902868;29;20290;-71
2023/12/08 12:25:01;;;;;;;18.00;6.72;;;1.60;99.90;;;;;;4908240;29;20237;-70
2023/12/08 12:27:28;;;;;;;17.35;9.10;;;1.50;99.90;;;;;;4904068;29;20215;-71
2023/12/08 12:29:56;;;;;;;16.35;9.02;;;1.50;99.90;;;;;;4906107;29;20210;-71
2023/12/08 12:32:23;;;;;;;16.05;9.05;;;1.50;99.90;;;;;;4910048;29;20629;-70
2023/12/08 12:34:51;;;;;;;25.48;10.50;;;1.60;99.90;;;;;;4909570;29;20563;-70
2023/12/08 12:37:18;;;;;;;14.18;7.30;;;1.60;99.90;;;;;;4908141;29;20678;-71
2023/12/08 12:39:45;;;;;;;20.67;8.13;;;1.60;99.90;;;;;;4911683;29;20214;-70
2023/12/08 12:42:12;;;;;;;20.50;9.65;;;1.50;99.90;;;;;;4910171;29;20668;-70
2023/12/08 12:44:43;;;;;;;11.93;8.48;;;1.50;99.90;;;;;;4907162;29;20242;-70
2023/12/08 12:47:11;;;;;;;17.33;9.30;;;1.50;99.90;;;;;;4908035;29;20651;-70
2023/12/08 12:49:39;;;;;;;17.00;10.18;;;1.50;99.90;;;;;;4911583;29;20243;-70
2023/12/08 12:52:23;;;;;;;12.95;9.63;;;1.50;99.90;;;;;;4909559;29;20234;-70
2023/12/08 12:54:49;;;;;;;19.85;10.02;;;1.50;99.90;;;;;;4909610;29;20208;-70
2023/12/08 12:57:16;;;;;;;9.93;8.25;;;1.50;99.90;;;;;;4910693;29;20234;-69
2023/12/08 12:59:54;;;;;;;16.73;10.63;;;1.50;99.90;;;;;;4912046;29;20206;-69
2023/12/08 13:02:28;;;;;;;15.75;10.55;;;1.50;99.90;;;;;;4908686;29;20305;-69
2023/12/08 13:04:54;;;;;;;18.95;10.70;;;1.50;99.90;;;;;;4909683;29;20281;-70
2023/12/08 13:07:21;;;;;;;13.73;9.35;;;1.50;99.90;;;;;;4908213;29;20202;-69
2023/12/08 13:09:49;;;;;;;15.02;9.68;;;1.50;99.90;;;;;;4909878;29;20707;-70
2023/12/08 13:12:15;;;;;;;18.02;9.45;;;1.50;99.90;;;;;;4912128;29;20586;-70
2023/12/08 13:14:42;;;;;;;13.30;8.48;;;1.50;99.90;;;;;;4908337;29;20211;-70
2023/12/08 13:17:09;;;;;;;17.48;9.68;;;1.50;99.90;;;;;;4908825;29;20210;-71
2023/12/08 13:19:35;;;;;;;27.48;10.77;;;1.50;99.90;;;;;;4909960;29;20218;-72
2023/12/08 13:22:02;;;;;;;7.05;4.15;;;1.50;99.90;;;;;;4909277;29;20239;-73
2023/12/08 13:24:29;;;;;;;7.50;6.00;;;1.50;99.90;;;;;;4910862;29;20258;-71
2023/12/08 13:26:57;;;;;;;4.30;3.97;;;1.50;99.90;;;;;;4910118;29;20210;-71
2023/12/08 13:29:24;;;;;;;15.20;7.63;;;1.40;99.90;;;;;;4912416;29;20207;-72
2023/12/08 13:31:50;;;;;;;9.70;8.05;;;1.40;99.90;;;;;;4907877;29;20241;-71
2023/12/08 13:34:17;;;;;;;11.77;6.90;;;1.40;99.90;;;;;;4909313;29;20642;-71
2023/12/08 13:36:44;;;;;;;15.15;8.43;;;1.40;99.90;;;;;;4907694;29;20213;-71
2023/12/08 13:39:11;;;;;;;17.77;9.63;;;1.40;99.90;;;;;;4910864;29;20222;-71
2023/12/08 13:41:37;;;;;;;20.35;8.77;;;1.40;99.90;;;;;;4907510;29;20282;-71
2023/12/08 13:44:05;;;;;;;13.18;7.80;;;1.50;99.90;;;;;;4908185;29;20570;-71
2023/12/08 13:46:32;;;;;;;17.40;9.57;;;1.50;99.90;;;;;;4912675;29;20221;-72
2023/12/08 13:48:59;;;;;;;15.63;9.27;;;1.50;99.90;;;;;;4909412;29;20563;-71
2023/12/08 13:51:27;;;;;;;13.50;8.02;;;1.50;99.90;;;;;;4911578;29;20319;-72
2023/12/08 13:53:53;;;;;;;10.60;7.20;;;1.50;99.90;;;;;;4909676;29;20286;-71
2023/12/08 13:56:20;;;;;;;12.93;9.05;;;1.40;99.90;;;;;;4911017;29;20211;-71
2023/12/08 13:58:47;;;;;;;12.32;8.25;;;1.40;99.90;;;;;;4914418;29;20214;-70
2023/12/08 14:01:15;;;;;;;2.47;2.33;;;1.50;99.90;;;;;;4914369;29;20238;-71
2023/12/08 14:03:41;;;;;;;12.45;7.78;;;1.50;99.90;;;;;;4915319;29;20211;-71
2023/12/08 14:06:08;;;;;;;16.77;9.55;;;1.40;99.90;;;;;;4914223;29;20608;-71
2023/12/08 14:08:35;;;;;;;9.00;7.97;;;1.40;99.90;;;;;;4913718;29;20214;-71
2023/12/08 14:11:02;;;;;;;6.75;5.88;;;1.40;99.90;;;;;;4914827;29;20333;-72
2023/12/08 14:13:29;;;;;;;8.15;5.63;;;1.40;99.90;;;;;;4912763;29;20298;-72
2023/12/08 14:15:56;;;;;;;11.55;7.68;;;1.40;99.90;;;;;;4914963;29;20254;-73
2023/12/08 14:18:24;;;;;;;14.95;9.48;;;1.40;99.90;;;;;;4917549;29;20210;-73
2023/12/08 14:20:50;;;;;;;14.70;10.00;;;1.40;99.90;;;;;;4910326;29;20226;-73
2023/12/08 14:23:17;;;;;;;17.48;9.93;;;1.40;99.90;;;;;;4916191;29;20207;-72
2023/12/08 14:25:44;;;;;;;12.73;9.80;;;1.40;99.90;;;;;;4914023;29;20238;-72
2023/12/08 14:28:10;;;;;;;19.35;9.90;;;1.40;99.90;;;;;;4924367;29;20297;-72
2023/12/08 14:30:37;;;;;;;15.10;5.63;;;1.40;99.90;;;;;;4915667;29;20241;-72
2023/12/08 14:33:04;;;;;;;19.38;9.90;;;1.40;99.90;;;;;;4925443;29;20210;-72
2023/12/08 14:35:32;;;;;;;17.27;11.65;;;1.50;99.90;;;;;;4917411;29;20218;-73
2023/12/08 14:37:58;;;;;;;13.60;8.25;;;1.40;99.90;;;;;;4912216;29;20208;-73
2023/12/08 14:40:25;;;;;;;15.38;10.60;;;1.40;99.90;;;;;;4919517;29;20221;-72
2023/12/08 14:42:53;;;;;;;11.30;7.15;;;1.40;99.90;;;;;;4920951;29;20218;-73
2023/12/08 14:45:20;;;;;;;12.68;7.72;;;1.40;99.90;;;;;;4912136;29;20309;-72
2023/12/08 14:47:46;;;;;;;8.38;5.20;;;1.40;99.90;;;;;;4911601;29;20239;-73
2023/12/08 14:50:14;;;;;;;18.02;8.88;;;1.40;99.90;;;;;;4911574;29;20219;-73
2023/12/08 14:52:42;;;;;;;19.75;8.68;;;1.40;99.90;;;;;;4913781;29;20237;-73
2023/12/08 14:55:09;;;;;;;9.23;7.28;;;1.40;99.90;;;;;;4916530;29;20202;-74
2023/12/08 14:57:36;;;;;;;9.77;7.55;;;1.40;99.90;;;;;;4914991;29;20222;-73
2023/12/08 15:00:03;;;;;;;12.88;8.85;;;1.40;99.90;;;;;;4913572;29;20214;-71
2023/12/08 15:02:30;;;;;;;14.55;10.30;;;1.40;99.90;;;;;;4914428;29;20371;-73
2023/12/08 15:04:57;;;;;;;16.02;9.80;;;1.40;99.90;;;;;;4915969;29;20234;-73
2023/12/08 15:07:23;;;;;;;10.63;7.40;;;1.40;99.90;;;;;;4913538;29;20203;-73
2023/12/08 15:09:51;;;;;;;23.20;11.15;;;1.40;99.90;;;;;;4913254;29;20627;-74
2023/12/08 15:12:18;;;;;;;8.80;6.55;;;1.40;99.90;;;;;;4913559;29;20238;-73
2023/12/08 15:14:45;;;;;;;24.35;10.40;;;1.40;99.90;;;;;;4912768;29;20207;-72
2023/12/08 15:17:12;;;;;;;14.68;8.25;;;1.40;99.90;;;;;;4914380;29;20207;-72
2023/12/08 15:19:38;;;;;;;4.75;4.45;;;1.40;99.90;;;;;;4915312;29;20218;-73
2023/12/08 15:22:07;;;;;;;20.67;11.00;;;1.40;99.90;;;;;;4913999;29;20245;-72
2023/12/08 15:24:34;;;;;;;14.18;7.13;;;1.40;99.90;;;;;;4914556;29;20211;-73
2023/12/08 15:27:02;;;;;;;19.35;9.95;;;1.40;99.90;;;;;;4913858;29;20222;-72
2023/12/08 15:29:29;;;;;;;10.77;6.53;;;1.40;99.90;;;;;;4910375;29;20206;-72
2023/12/08 15:31:55;;;;;;;15.10;7.80;;;1.40;99.90;;;;;;4913907;29;20261;-73
2023/12/08 15:34:22;;;;;;;16.88;9.05;;;1.40;99.90;;;;;;4911179;29;20218;-73
2023/12/08 15:36:49;;;;;;;21.05;12.18;;;1.40;99.90;;;;;;4914449;29;20682;-73
2023/12/08 15:39:17;;;;;;;16.45;11.80;;;1.40;99.90;;;;;;4912974;29;20261;-73
2023/12/08 15:41:44;;;;;;;18.65;9.55;;;1.40;99.90;;;;;;4913216;29;20314;-73
2023/12/08 15:44:12;;;;;;;18.65;12.13;;;1.40;99.90;;;;;;4913067;29;20210;-73
2023/12/08 15:46:39;;;;;;;18.30;10.23;;;1.50;99.90;;;;;;4911744;29;20690;-73
2023/12/08 15:49:05;;;;;;;13.75;8.27;;;1.40;99.90;;;;;;4911931;29;20290;-73
2023/12/08 15:51:32;;;;;;;19.90;10.68;;;1.50;99.90;;;;;;4913098;29;20234;-73
2023/12/08 15:53:59;;;;;;;16.13;9.13;;;1.50;99.90;;;;;;4911068;29;20213;-73
2023/12/08 15:56:26;;;;;;;22.25;10.35;;;1.40;99.90;;;;;;4910749;29;20298;-72
2023/12/08 15:58:52;;;;;;;21.60;13.73;;;1.40;99.90;;;;;;4912413;29;20214;-73
2023/12/08 16:01:20;;;;;;;15.25;10.38;;;1.40;99.90;;;;;;4912142;29;20322;-73
2023/12/08 16:03:47;;;;;;;16.17;11.15;;;1.40;99.90;;;;;;4911156;29;20250;-73
2023/12/08 16:06:14;;;;;;;15.27;11.07;;;1.50;99.90;;;;;;4908114;29;20228;-73
2023/12/08 16:08:42;;;;;;;14.20;7.88;;;1.50;99.90;;;;;;4913091;29;20635;-73
2023/12/08 16:11:09;;;;;;;18.60;10.68;;;1.50;99.90;;;;;;4914463;29;20234;-73
2023/12/08 16:13:37;;;;;;;20.05;11.68;;;1.40;99.90;;;;;;4913270;29;20571;-73
2023/12/08 16:16:06;;;;;;;15.90;7.00;;;1.40;99.90;;;;;;4907725;29;20210;-74
2023/12/08 16:18:35;;;;;;;6.07;4.75;;;1.40;99.90;;;;;;4917391;29;20300;-73
2023/12/08 16:21:02;;;;;;;19.85;10.60;;;1.50;99.90;;;;;;4916008;29;20226;-73
2023/12/08 16:23:29;;;;;;;19.60;12.05;;;1.50;99.90;;;;;;4919295;29;20206;-73
2023/12/08 16:26:00;;;;;;;13.85;10.98;;;1.40;99.90;;;;;;4913361;29;20262;-73
2023/12/08 16:28:27;;;;;;;9.05;6.20;;;1.50;99.90;;;;;;4911468;29;20242;-72
2023/12/08 16:30:54;;;;;;;16.40;8.15;;;1.50;99.90;;;;;;4913566;29;20227;-73
2023/12/08 16:33:21;;;;;;;21.10;11.40;;;1.40;99.90;;;;;;4914296;29;20523;-73
2023/12/08 16:35:50;;;;;;;21.90;10.40;;;1.40;99.90;;;;;;4910924;29;20297;-73
2023/12/08 16:38:16;;;;;;;24.30;10.55;;;1.40;99.90;;;;;;4911822;29;20294;-73
2023/12/08 16:40:43;;;;;;;20.15;9.30;;;1.50;99.90;;;;;;4910577;29;20342;-73
2023/12/08 16:43:10;;;;;;;14.50;9.63;;;1.50;99.90;;;;;;4911720;29;20310;-71
2023/12/08 16:45:36;;;;;;;14.35;10.80;;;1.50;99.90;;;;;;4909436;29;20234;-71
2023/12/08 16:48:04;;;;;;;20.25;11.70;;;1.50;99.90;;;;;;4913258;29;20230;-73
2023/12/08 16:50:31;;;;;;;14.90;11.25;;;1.50;99.90;;;;;;4915138;29;20210;-73
2023/12/08 16:52:59;;;;;;;20.90;10.55;;;1.50;99.90;;;;;;4916073;29;20300;-73
2023/12/08 16:55:25;;;;;;;17.65;10.55;;;1.50;99.90;;;;;;4916650;29;20214;-74
2023/12/08 16:57:53;;;;;;;11.60;7.43;;;1.50;99.90;;;;;;4914310;29;20206;-73
2023/12/08 17:00:20;;;;;;;13.90;9.95;;;1.50;99.90;;;;;;4915293;29;20238;-72
2023/12/08 17:02:46;;;;;;;16.15;11.18;;;1.40;99.90;;;;;;4915966;29;20222;-73
2023/12/08 17:05:15;;;;;;;13.73;9.55;;;1.50;99.90;;;;;;4910432;29;20234;-73
2023/12/08 17:07:42;;;;;;;21.88;13.20;;;1.50;99.90;;;;;;4914075;29;20223;-73
2023/12/08 17:10:10;;;;;;;16.85;11.02;;;1.50;99.90;;;;;;4913880;29;20221;-74
2023/12/08 17:12:37;;;;;;;25.70;12.73;;;1.50;99.90;;;;;;4914197;29;20245;-74
2023/12/08 17:15:04;;;;;;;19.42;10.70;;;1.50;99.90;;;;;;4916048;29;20226;-73
2023/12/08 17:17:31;;;;;;;24.00;11.55;;;1.50;99.90;;;;;;4919272;29;20210;-73
2023/12/08 17:19:58;;;;;;;17.33;10.65;;;1.50;99.90;;;;;;4919257;29;20234;-73
2023/12/08 17:22:25;;;;;;;23.33;12.80;;;1.50;99.90;;;;;;4917250;29;20305;-73
2023/12/08 17:24:52;;;;;;;25.10;12.35;;;1.50;99.90;;;;;;4919686;29;20221;-73
2023/12/08 17:27:20;;;;;;;28.67;15.45;;;1.50;99.90;;;;;;4912316;29;20238;-73
2023/12/08 17:29:47;;;;;;;29.58;12.00;;;1.50;99.90;;;;;;4914612;29;20210;-74
2023/12/08 17:32:15;;;;;;;20.70;12.10;;;1.60;99.90;;;;;;4911681;29;20241;-73
2023/12/08 17:34:42;;;;;;;20.55;12.35;;;1.60;99.90;;;;;;4913607;29;20210;-74
2023/12/08 17:37:09;;;;;;;24.08;13.90;;;1.60;99.90;;;;;;4912821;29;20240;-74
2023/12/08 17:39:36;;;;;;;21.25;13.23;;;1.60;99.90;;;;;;4918262;29;20217;-72
2023/12/08 17:42:02;;;;;;;19.73;12.77;;;1.60;99.90;;;;;;4913285;29;20252;-72
2023/12/08 17:44:33;;;;;;;19.77;11.40;;;1.60;99.90;;;;;;4914894;29;20962;-72
2023/12/08 17:47:01;;;;;;;20.65;13.88;;;1.60;99.90;;;;;;4917555;29;20234;-72
2023/12/08 17:49:29;;;;;;;29.23;15.10;;;1.60;99.90;;;;;;4915212;29;20274;-72
2023/12/08 17:51:56;;;;;;;25.63;13.30;;;1.60;99.90;;;;;;4915667;29;20360;-72
2023/12/08 17:54:23;;;;;;;19.25;12.65;;;1.60;99.90;;;;;;4915637;29;20531;-72